createdAt,value
2023-04-29T00:00:59.474Z,68.12
2023-04-29T00:05:00.481Z,68.07
2023-04-29T00:09:04.754Z,67.85
2023-04-29T00:13:05.372Z,68.47
2023-04-29T00:17:05.725Z,67.53
2023-04-29T00:21:06.376Z,67.60
2023-04-29T00:25:12.501Z,67.55
2023-04-29T00:29:14.023Z,67.29
2023-04-29T00:33:14.406Z,66.65
2023-04-29T00:37:14.711Z,66.77
2023-04-29T00:41:17.885Z,66.97
2023-04-29T00:45:18.118Z,67.00
2023-04-29T00:49:18.536Z,67.10
2023-04-29T00:53:19.219Z,66.49
2023-04-29T00:57:23.220Z,67.00
2023-04-29T01:01:23.974Z,67.02
2023-04-29T01:05:24.610Z,67.23
2023-04-29T01:09:51.062Z,67.34
2023-04-29T01:14:03.342Z,67.77
2023-04-29T01:18:13.346Z,66.98
2023-04-29T01:22:14.682Z,66.27
2023-04-29T01:26:17.607Z,65.87
2023-04-29T01:30:53.218Z,66.17
2023-04-29T01:35:04.381Z,66.03
2023-04-29T01:39:17.419Z,65.49
2023-04-29T01:43:28.058Z,65.70
2023-04-29T01:47:30.396Z,65.46
2023-04-29T01:51:31.364Z,66.13
2023-04-29T01:55:31.657Z,66.69
2023-04-29T01:59:51.082Z,66.13
2023-04-29T02:04:10.446Z,65.60
2023-04-29T02:08:11.573Z,66.32
2023-04-29T02:12:15.591Z,65.43
2023-04-29T02:16:19.756Z,65.46
2023-04-29T02:20:27.464Z,66.33
2023-04-29T02:24:27.822Z,65.87
2023-04-29T02:28:28.207Z,65.33
2023-04-29T02:32:31.498Z,65.35
2023-04-29T02:36:32.148Z,65.51
2023-04-29T02:40:32.983Z,65.20
2023-04-29T02:44:33.949Z,65.78
2023-04-29T02:48:37.980Z,64.40
2023-04-29T02:52:38.802Z,63.92
2023-04-29T02:56:40.066Z,64.88
2023-04-29T03:00:40.267Z,64.36
2023-04-29T03:04:46.992Z,64.18
2023-04-29T03:08:47.173Z,64.55
2023-04-29T03:12:47.905Z,64.75
2023-04-29T03:16:49.180Z,64.26
2023-04-29T03:20:52.012Z,64.08
2023-04-29T03:24:52.438Z,65.28
2023-04-29T03:28:54.289Z,65.25
2023-04-29T03:32:54.657Z,64.65
2023-04-29T03:36:58.401Z,64.53
2023-04-29T03:40:58.897Z,64.98
2023-04-29T03:44:59.234Z,64.94
2023-04-29T03:48:59.600Z,65.24
2023-04-29T03:53:02.507Z,65.11
2023-04-29T03:57:04.797Z,65.69
2023-04-29T04:01:05.508Z,65.22
2023-04-29T04:05:13.800Z,64.88
2023-04-29T04:09:21.115Z,64.63
2023-04-29T04:13:22.270Z,65.34
2023-04-29T04:17:22.723Z,66.09
2023-04-29T04:21:22.983Z,65.65
2023-04-29T04:25:35.914Z,65.32
2023-04-29T04:29:59.213Z,66.11
2023-04-29T04:34:04.464Z,65.49
2023-04-29T04:38:06.639Z,65.54
2023-04-29T04:42:09.697Z,66.36
2023-04-29T04:46:18.502Z,66.92
2023-04-29T04:50:36.965Z,66.17
2023-04-29T04:54:38.562Z,66.62
2023-04-29T04:58:57.276Z,67.31
2023-04-29T05:02:58.249Z,67.35
2023-04-29T05:06:58.799Z,66.63
2023-04-29T05:11:03.861Z,66.67
2023-04-29T05:15:07.494Z,66.10
2023-04-29T05:19:09.821Z,66.04
2023-04-29T05:23:13.065Z,66.36
2023-04-29T05:27:15.013Z,66.72
2023-04-29T05:31:18.491Z,66.91
2023-04-29T05:35:19.229Z,67.11
2023-04-29T05:39:19.737Z,66.51
2023-04-29T05:43:28.311Z,66.62
2023-04-29T05:47:32.825Z,66.09
2023-04-29T05:51:33.307Z,65.72
2023-04-29T05:55:33.532Z,65.39
2023-04-29T05:59:34.296Z,63.14
2023-04-29T06:03:42.036Z,62.11
2023-04-29T06:08:03.280Z,60.19
2023-04-29T06:12:18.490Z,60.23
2023-04-29T06:16:21.721Z,59.02
2023-04-29T06:20:25.132Z,58.33
2023-04-29T06:24:26.749Z,57.88
2023-04-29T06:28:26.932Z,56.93
2023-04-29T06:32:27.671Z,56.63
2023-04-29T06:36:30.726Z,57.29
2023-04-29T06:40:50.929Z,57.76
2023-04-29T06:45:11.697Z,56.66
2023-04-29T06:49:14.819Z,57.20
2023-04-29T06:53:17.711Z,56.70
2023-04-29T06:57:17.954Z,55.12
2023-04-29T07:01:19.756Z,55.29
2023-04-29T07:05:20.527Z,55.59
2023-04-29T07:09:23.949Z,54.95
2023-04-29T07:13:24.210Z,53.43
2023-04-29T07:17:24.427Z,52.68
2023-04-29T07:21:24.817Z,51.51
2023-04-29T07:25:29.622Z,52.47
2023-04-29T07:29:29.865Z,53.90
2023-04-29T07:33:31.059Z,54.04
2023-04-29T07:37:31.416Z,52.20
2023-04-29T07:41:34.369Z,53.07
2023-04-29T07:45:34.592Z,52.48
2023-04-29T07:49:35.850Z,53.51
2023-04-29T07:53:36.347Z,53.46
2023-04-29T07:57:39.121Z,51.69
2023-04-29T08:01:39.416Z,50.17
2023-04-29T08:05:40.014Z,50.72
2023-04-29T08:09:40.352Z,51.52
2023-04-29T08:13:45.925Z,51.26
2023-04-29T08:17:46.180Z,52.85
2023-04-29T08:21:46.479Z,51.27
2023-04-29T08:25:46.919Z,52.22
2023-04-29T08:29:49.680Z,51.65
2023-04-29T08:33:50.362Z,51.81
2023-04-29T08:37:50.612Z,51.07
2023-04-29T08:41:52.285Z,51.73
2023-04-29T08:45:56.147Z,48.45
2023-04-29T08:49:57.584Z,49.02
2023-04-29T08:53:59.556Z,49.85
2023-04-29T08:58:00.741Z,48.14
2023-04-29T09:02:04.241Z,46.49
2023-04-29T09:06:06.506Z,42.67
2023-04-29T09:10:12.362Z,44.26
2023-04-29T09:14:12.594Z,47.10
2023-04-29T09:18:15.280Z,45.14
2023-04-29T09:22:15.522Z,44.94
2023-04-29T09:26:17.422Z,46.47
2023-04-29T09:30:19.655Z,46.45
2023-04-29T09:34:35.967Z,45.27
2023-04-29T09:38:39.504Z,44.63
2023-04-29T09:42:46.625Z,43.76
2023-04-29T09:46:47.245Z,43.94
2023-04-29T09:51:05.031Z,45.09
2023-04-29T09:55:10.203Z,45.77
2023-04-29T09:59:12.188Z,45.80
2023-04-29T10:03:13.285Z,46.66
2023-04-29T10:07:19.285Z,45.97
2023-04-29T10:11:20.895Z,46.34
2023-04-29T10:15:30.741Z,46.17
2023-04-29T10:19:38.368Z,45.99
2023-04-29T10:23:42.582Z,45.33
2023-04-29T10:27:45.968Z,45.41
2023-04-29T10:31:47.716Z,45.67
2023-04-29T10:35:51.221Z,46.33
2023-04-29T10:40:04.421Z,46.60
2023-04-29T10:44:04.795Z,47.87
2023-04-29T10:48:22.130Z,48.16
2023-04-29T10:52:22.585Z,47.59
2023-04-29T10:56:25.426Z,46.50
2023-04-29T11:00:29.292Z,46.05
2023-04-29T11:04:29.492Z,45.34
2023-04-29T11:08:29.850Z,46.58
2023-04-29T11:12:32.707Z,45.42
2023-04-29T11:16:33.027Z,43.44
2023-04-29T11:20:33.340Z,41.40
2023-04-29T11:24:33.658Z,38.97
2023-04-29T11:28:36.992Z,40.81
2023-04-29T11:32:40.657Z,40.86
2023-04-29T11:36:40.987Z,40.73
2023-04-29T11:40:45.238Z,41.75
2023-04-29T11:44:48.815Z,40.22
2023-04-29T11:48:53.414Z,41.52
2023-04-29T11:52:53.768Z,38.06
2023-04-29T11:56:57.265Z,37.52
2023-04-29T12:01:01.973Z,37.49
2023-04-29T12:05:03.959Z,36.56
2023-04-29T12:09:04.679Z,37.21
2023-04-29T12:13:05.444Z,37.49
2023-04-29T12:17:09.708Z,36.94
2023-04-29T12:21:10.491Z,37.33
2023-04-29T12:25:12.652Z,37.11
2023-04-29T12:29:14.237Z,36.72
2023-04-29T12:33:22.847Z,36.61
2023-04-29T12:37:26.214Z,38.44
2023-04-29T12:41:40.861Z,38.83
2023-04-29T12:45:43.000Z,38.30
2023-04-29T12:49:50.304Z,38.88
2023-04-29T12:53:50.598Z,37.97
2023-04-29T12:57:50.734Z,37.94
2023-04-29T13:01:50.996Z,39.42
2023-04-29T13:05:55.129Z,39.84
2023-04-29T13:13:55.554Z,41.06
2023-04-29T13:17:56.364Z,41.77
2023-04-29T13:21:59.173Z,42.23
2023-04-29T13:25:59.444Z,41.58
2023-04-29T13:29:59.714Z,42.62
2023-04-29T13:33:59.899Z,41.88
2023-04-29T13:38:02.758Z,41.67
2023-04-29T13:42:04.290Z,41.30
2023-04-29T13:46:04.601Z,40.89
2023-04-29T13:54:50.203Z,43.53
2023-04-29T13:59:08.462Z,41.82
2023-04-29T14:06:54.801Z,43.47
2023-04-29T14:10:58.231Z,43.27
2023-04-29T14:15:00.097Z,43.05
2023-04-29T14:19:03.402Z,42.95
2023-04-29T14:23:04.101Z,43.08
2023-04-29T14:27:07.483Z,42.65
2023-04-29T14:31:07.784Z,41.26
2023-04-29T14:35:09.603Z,40.33
2023-04-29T14:39:09.716Z,40.63
2023-04-29T14:43:12.475Z,39.15
2023-04-29T14:47:12.847Z,39.44
2023-04-29T14:51:13.662Z,38.84
2023-04-29T14:55:13.829Z,37.63
2023-04-29T14:59:17.274Z,35.92
2023-04-29T15:03:22.600Z,35.38
2023-04-29T15:07:23.268Z,35.54
2023-04-29T15:11:24.368Z,36.72
2023-04-29T15:15:27.605Z,36.27
2023-04-29T15:19:27.874Z,35.59
2023-04-29T15:23:28.189Z,34.78
2023-04-29T15:27:28.478Z,34.96
2023-04-29T15:31:31.323Z,35.24
2023-04-29T15:35:31.872Z,36.27
2023-04-29T15:39:32.104Z,36.89
2023-04-29T15:43:33.705Z,37.95
2023-04-29T15:47:36.522Z,38.93
2023-04-29T15:51:36.779Z,39.35
2023-04-29T15:55:37.409Z,38.83
2023-04-29T15:59:37.585Z,37.27
2023-04-29T16:03:40.389Z,37.25
2023-04-29T16:07:40.725Z,37.75
2023-04-29T16:11:40.948Z,38.76
2023-04-29T16:15:41.404Z,39.12
2023-04-29T16:19:44.809Z,40.02
2023-04-29T16:23:45.099Z,40.59
2023-04-29T16:27:45.258Z,41.88
2023-04-29T16:31:45.527Z,42.42
2023-04-29T16:35:48.556Z,42.51
2023-04-29T16:39:49.193Z,42.80
2023-04-29T16:43:53.149Z,42.94
2023-04-29T16:47:54.763Z,42.47
2023-04-29T16:51:57.818Z,43.25
2023-04-29T16:55:58.290Z,43.34
2023-04-29T16:59:58.637Z,43.21
2023-04-29T17:03:59.605Z,43.82
2023-04-29T17:08:03.609Z,44.45
2023-04-29T17:12:04.319Z,43.98
2023-04-29T17:16:04.710Z,44.73
2023-04-29T17:20:05.139Z,44.43
2023-04-29T17:24:08.607Z,44.80
2023-04-29T17:28:09.054Z,44.63
2023-04-29T17:32:15.213Z,44.10
2023-04-29T17:36:15.539Z,44.33
2023-04-29T17:40:18.556Z,43.90
2023-04-29T17:44:20.580Z,43.46
2023-04-29T17:48:22.765Z,44.34
2023-04-29T17:52:23.842Z,43.94
2023-04-29T17:56:27.485Z,43.96
2023-04-29T18:00:28.248Z,43.66
2023-04-29T18:04:29.003Z,44.12
2023-04-29T18:08:29.501Z,44.24
2023-04-29T18:12:32.763Z,45.25
2023-04-29T18:16:33.308Z,45.29
2023-04-29T18:20:33.724Z,45.33
2023-04-29T18:24:34.019Z,46.18
2023-04-29T18:28:37.436Z,46.11
2023-04-29T18:32:37.751Z,45.91
2023-04-29T18:36:38.151Z,45.98
2023-04-29T18:40:39.039Z,46.13
2023-04-29T18:44:42.477Z,46.61
2023-04-29T18:48:42.885Z,46.93
2023-04-29T18:52:43.414Z,46.67
2023-04-29T18:56:44.114Z,46.94
2023-04-29T19:00:47.248Z,47.47
2023-04-29T19:04:47.586Z,47.73
2023-04-29T19:08:47.988Z,47.39
2023-04-29T19:12:48.322Z,47.57
2023-04-29T19:16:51.229Z,47.79
2023-04-29T19:20:53.715Z,47.20
2023-04-29T19:24:54.108Z,47.57
2023-04-29T19:28:54.383Z,48.29
2023-04-29T19:32:57.252Z,48.80
2023-04-29T19:36:57.594Z,48.45
2023-04-29T19:40:59.458Z,48.28
2023-04-29T19:45:00.084Z,48.54
2023-04-29T19:49:03.036Z,48.53
2023-04-29T19:53:03.640Z,48.01
2023-04-29T19:57:04.075Z,48.28
2023-04-29T20:01:05.243Z,48.69
2023-04-29T20:05:12.255Z,47.90
2023-04-29T20:09:14.635Z,47.87
2023-04-29T20:13:15.886Z,47.19
2023-04-29T20:17:17.352Z,47.14
2023-04-29T20:21:20.298Z,47.73
2023-04-29T20:25:20.748Z,47.74
2023-04-29T20:29:21.418Z,47.97
2023-04-29T20:33:21.824Z,48.20
2023-04-29T20:37:28.496Z,47.78
2023-04-29T20:41:30.725Z,47.82
2023-04-29T20:45:31.816Z,47.82
2023-04-29T20:49:32.352Z,47.53
2023-04-29T20:53:35.601Z,47.96
2023-04-29T20:57:36.468Z,48.17
2023-04-29T21:01:38.043Z,48.17
2023-04-29T21:05:38.983Z,48.08
2023-04-29T21:09:42.213Z,47.94
2023-04-29T21:13:42.881Z,47.74
2023-04-29T21:17:44.730Z,47.84
2023-04-29T21:21:45.411Z,47.46
2023-04-29T21:25:48.363Z,47.72
2023-04-29T21:29:48.822Z,47.83
2023-04-29T21:33:49.847Z,48.04
2023-04-29T21:37:50.393Z,48.24
2023-04-29T21:41:55.067Z,48.97
2023-04-29T21:45:57.404Z,48.83
2023-04-29T21:49:58.346Z,48.88
2023-04-29T21:53:58.614Z,49.16
2023-04-29T21:58:01.612Z,49.14
2023-04-29T22:02:04.370Z,48.99
2023-04-29T22:06:04.677Z,49.46
2023-04-29T22:10:05.102Z,49.62
2023-04-29T22:14:08.618Z,49.71
2023-04-29T22:18:08.931Z,49.28
2023-04-29T22:22:09.718Z,49.70
2023-04-29T22:26:09.965Z,49.38
2023-04-29T22:30:14.665Z,49.86
2023-04-29T22:34:15.134Z,50.03
2023-04-29T22:38:15.546Z,49.62
2023-04-29T22:42:16.090Z,49.41
2023-04-29T22:46:20.161Z,49.22
2023-04-29T22:50:22.046Z,49.37
2023-04-29T22:54:22.271Z,49.38
2023-04-29T22:58:24.728Z,49.28
2023-04-29T23:02:30.351Z,49.16
2023-04-29T23:06:30.971Z,50.11
2023-04-29T23:10:31.405Z,49.51
2023-04-29T23:14:31.669Z,49.41
2023-04-29T23:18:35.570Z,49.55
2023-04-29T23:22:36.243Z,49.90
2023-04-29T23:26:36.436Z,50.40
2023-04-29T23:30:36.632Z,50.54
2023-04-29T23:34:39.608Z,50.92
2023-04-29T23:38:40.867Z,51.17
2023-04-29T23:42:41.210Z,51.15
2023-04-29T23:46:42.031Z,51.50
2023-04-29T23:50:45.249Z,51.60
2023-04-29T23:54:45.776Z,51.03
2023-04-29T23:58:46.214Z,51.08
